createdAt,value
2019-03-21T11:44:26.949Z,1031.02
2019-03-21T11:44:52.152Z,1031.05
2019-03-21T11:45:17.387Z,1031.07
2019-03-21T11:45:42.586Z,1031.05
2019-03-21T19:40:14.075Z,1030.09
2019-03-21T19:40:59.787Z,1030.12
2019-03-21T19:42:25.088Z,1030.06
2019-03-21T19:43:50.415Z,1030.08
2019-03-21T19:45:15.770Z,1030.14
2019-03-21T19:46:41.020Z,1030.12
2019-03-21T19:48:06.333Z,1030.14
2019-03-21T19:49:31.647Z,1030.11
2019-03-21T19:50:57.048Z,1030.03
2019-03-21T19:52:22.271Z,1030.04
2019-03-21T19:53:47.660Z,1030.06
2019-03-21T19:55:12.894Z,1030.08
2019-03-21T19:56:38.193Z,1030.10
2019-03-21T19:58:04.511Z,1030.13
2019-03-21T19:58:54.560Z,1030.14
2019-03-21T19:59:56.131Z,1030.14
2019-03-21T20:01:22.523Z,1030.22
2019-03-21T20:02:48.822Z,1030.24
2019-03-21T20:04:14.982Z,1030.21
2019-03-21T20:05:41.317Z,1030.22
2019-03-21T20:07:08.888Z,1030.24
2019-03-21T20:08:35.998Z,1030.21
2019-03-21T20:10:02.262Z,1030.20
2019-03-21T20:11:28.548Z,1030.21
2019-03-21T20:12:54.855Z,1030.19
2019-03-21T20:14:21.159Z,1030.23
2019-03-21T20:33:12.308Z,1030.28
2019-03-21T20:34:39.466Z,1030.25
2019-03-21T20:36:05.828Z,1030.29
2019-03-21T20:37:32.098Z,1030.28
2019-03-21T20:38:58.438Z,1030.17
2019-03-21T20:40:24.684Z,1030.19
2019-03-21T20:41:51.057Z,1030.11
2019-03-21T20:43:17.305Z,1030.30
2019-03-21T20:44:16.043Z,1030.27
2019-03-21T20:45:42.348Z,1030.21
2019-03-21T20:57:02.529Z,1030.33
2019-03-21T20:58:28.776Z,1030.32
2019-03-21T20:59:55.076Z,1030.35
2019-03-21T21:01:21.404Z,1030.34
2019-03-21T21:02:47.773Z,1030.37
2019-03-21T21:04:13.967Z,1030.40
2019-03-21T21:05:40.338Z,1030.47
2019-03-21T21:07:06.601Z,1030.49
2019-03-21T21:08:33.135Z,1030.49
2019-03-21T21:09:59.444Z,1030.47
2019-03-21T21:11:25.803Z,1030.47
2019-03-21T21:12:52.057Z,1030.52
2019-03-21T21:14:18.297Z,1030.48
2019-03-21T21:15:44.602Z,1030.49
2019-03-21T21:17:10.993Z,1030.45
2019-03-21T21:18:37.228Z,1030.46
2019-03-21T21:20:03.551Z,1030.35
2019-03-21T21:21:29.843Z,1030.39
2019-03-21T21:22:56.198Z,1030.39
2019-03-21T21:24:22.466Z,1030.37
2019-03-21T21:25:48.712Z,1030.38
2019-03-21T21:27:15.022Z,1030.33
2019-03-21T21:28:41.341Z,1030.37
2019-03-21T21:30:07.695Z,1030.41
2019-03-21T21:31:34.001Z,1030.38
2019-03-21T21:33:00.311Z,1030.33
2019-03-21T21:34:26.603Z,1030.29
2019-03-21T21:35:52.864Z,1030.26
2019-03-21T21:37:19.176Z,1030.28
2019-03-21T21:38:45.478Z,1030.23
2019-03-21T21:40:11.836Z,1030.33
2019-03-21T21:41:38.152Z,1030.38
2019-03-21T21:43:04.420Z,1030.38
2019-03-21T21:44:30.670Z,1030.38
2019-03-21T21:45:56.980Z,1030.35
2019-03-21T21:47:23.324Z,1030.35
2019-03-21T21:48:49.593Z,1030.37
2019-03-21T21:50:15.909Z,1030.35
2019-03-21T21:51:42.254Z,1030.33
